Aérodrome :
LOGIN :

S'inscrire | Disclaimer

   EN    FR    IT 

 










Légende :    VFR   VFR Marginal   IFR   IFR Intensif   IFR Très Intensif
Visi : 
Plafond : 
>= 8 km
>= 3000ft
5 à 8 km
1000 à 3000 ft
1500m à 5 km
500 à 1000 ft
800 à 1500m
200 à 500 ft
< 800m
< 200 ft
Symboles :   Orages  Brouillard  Fortes neiges  Fortes précipitations  Vent > 20 kt
SIGMETs :   Divers  Orages  Givrage  Turbulence  Onde Orograph.  Cendres Volcan.







- Altitude de l'aérodrome : 219 ft
- Code IATA : DNR
- Voir les cartes d'approche


LFRD - Dinard

DERNIER METAR :
  • 232130Z AUTO 21013KT 9999 BKN024 13/11 Q1020 TEMPO 1500 DZ BR BKN003

METARs EXPIRÉS :
  • 232100Z AUTO 21013KT 9999 FEW013 13/11 Q1020 TEMPO 1500 DZ BR BKN003
  • 232030Z AUTO 21013KT 9999 SCT016 OVC023 13/11 Q1020 TEMPO 1500 DZ BR BKN002
  • 232000Z AUTO 21012KT 9999 BKN015 OVC024 13/12 Q1021 TEMPO 1500 DZ BR BKN002
  • 231930Z AUTO 21012KT 9999 BKN013 BKN018 OVC027 13/11 Q1021 TEMPO 1500 DZ BR BKN002
  • 231900Z AUTO 21011KT 9999 BKN014 BKN019 BKN025 13/12 Q1021 TEMPO 1500 DZ BR BKN002

TAF AMD TAF LFRD
Valide du 23 à 20h jusqu'au 24 à 18h UTC


232039Z 2320/2418 21013KT 9999 BKN015
TEMPO 2320/2408 3000 DZ BKN006
PROB40
TEMPO 2320/2406 1500 DZ BR BKN003
BECMG 2400/2403 21015G25KT
BECMG 2406/2409 20020G35KT
TEMPO 2412/2418 4000 RA BKN008
ATIS : +33 2 99 16 81 50
Pas de NOTAMs connus pour ce terrain.



MET'MAP, la Météo Aéronautique d'un coup d'oeil ! - Copyright ORBIFLY Décembre 2007 - Disclaimer

ORBIFLY MET'MAP TEAM :

Programmation & Développement : Alexandra Zaïnal
Conception & Développement : Baudouin d'Aumeries
Co-Programmation & Développement : Marc-Olivier Méhu
Soutien technique & logistique : Manuel Goepfert

Contact : metmap@orbifly.com




SOURCES & CREDITS :

   NOAA